Terminal Aerodrome Forecast
Issued by NWS

Home | Current Version | Previous Version | Text Only | Print | Product List | Glossary On
Versions: 1 2 3 4 5 6 7 8 9 10 11 12 13 14 15
000
FTUS46 KSTO 201100
TAFSAC
TAF
KSAC 201130Z 2012/2112 15005KT P6SM VCSH SCT010 OVC020
      TEMPO 2012/2016 5SM BR BKN007
     FM201600 15008KT 5SM -RA BR BKN007 OVC012
     FM202000 16009KT P6SM OVC025=

USA.gov is the U.S. government's official web portal to all federal, state and local government web resources and services.